Sierra Nevada Aquatic Research Lab (SNARL) Reserve, California Weather observations

Data are for 10 minute period ending at time listed.
 Day   Time   Solar   Ave.   Ave.  Ave.  Vector  Max.   Baro.   Total    
  of    of     Rad.   Air    Rel.  Wind   Wind   Wind  Press.  Precip.   
Year   Day            Temp.  Hum.  Speed  Dir.   Gust                    
2015   (PST)  Kw/m2    F      %     mph   deg.    mph    mb.     in.     
-------------------------------------------------------------------------
 214   15:00   0.75   79.7    22   11.6   251    22.4   786.1    0.00 
 214   15:10   0.73   79.8    22    8.7   262    14.5   786.0    0.00 
 214   15:20   0.69   79.1    22   10.9   266    19.5   785.9    0.00 
 214   15:30   0.67   79.1    23    9.1   261    20.5   785.9    0.00 
 214   15:40   0.63   78.5    23   12.0   264    21.3   785.9    0.00 
 214   15:50   0.59   77.9    23   12.1   260    18.6   785.8    0.00 
 214   16:00   0.57   78.3    23   10.1   267    17.5   785.8    0.00 
 214   16:10   0.52   77.5    24   12.4   266    20.8   785.7    0.00 
 214   16:20   0.50   77.8    24   11.1   247    17.7   785.8    0.00 
 214   16:30   0.47   77.0    25   12.7   274    19.8   785.8    0.00 
 214   16:40   0.43   76.5    26   11.1   271    18.3   785.8    0.00 
 214   16:50   0.39   76.9    26    9.8   262    15.8   785.8    0.00 
 214   17:00   0.36   76.6    26    9.9   269    17.4   785.8    0.00 
 214   17:10   0.33   76.1    27   10.7   276    22.1   785.7    0.00 
 214   17:20   0.29   76.2    27   10.6   253    16.7   785.8    0.00 
 214   17:30   0.26   76.2    26   10.5   239    18.9   785.8    0.00 
 214   17:40   0.23   75.4    27   12.7   233    19.9   785.8    0.00 
 214   17:50   0.19   74.8    28   12.1   234    19.1   785.8    0.00 
 214   18:00   0.16   74.3    28   11.9   235    19.4   785.8    0.00 
 214   18:10   0.13   73.4    29   13.6   225    20.2   785.8    0.00 
 214   18:20   0.10   73.1    29   11.6   224    16.9   785.8    0.00 
 214   18:30   0.07   72.7    29    8.3   233    13.3   785.8    0.00 
 214   18:40   0.04   72.1    30    8.1   221    18.6   785.8    0.00 
 214   18:50   0.01   70.7    31    5.4   228    11.5   785.8    0.00 
 214   19:00   0.00   69.2    33    3.2   270     6.9   785.9    0.00 
 214   19:10   0.00   68.1    34    4.0   291     7.8   786.0    0.00 
 214   19:20   0.00   67.4    34    3.8   287     7.9   785.9    0.00 
 214   19:30   0.00   66.9    35    7.1   275    12.9   785.9    0.00 
 214   19:40   0.00   66.4    35    7.9   293    15.4   786.0    0.00 
 214   19:50   0.00   66.4    35    7.0   266    11.9   786.1    0.00 
 214   20:00   0.00   66.3    36    6.8   247    11.5   786.1    0.00 
 214   20:10   0.00   65.9    37    3.2   123     8.3   786.3    0.00 
 214   20:20   0.00   63.8    40    2.6    72     5.4   786.3    0.00 
 214   20:30   0.00   62.0    43    2.4   347     5.0   786.4    0.00 
 214   20:40   0.00   59.3    47    3.6   248     6.2   786.4    0.00 
 214   20:50   0.00   57.6    49    2.5   255     5.6   786.3    0.00 
 214   21:00   0.00   58.0    49    2.2   306     5.0   786.3    0.00 
 214   21:10   0.00   57.2    51    1.2   315     2.5   786.3    0.00 
 214   21:20   0.00   55.7    54    2.5   224     4.5   786.4    0.00 
 214   21:30   0.00   54.3    56    4.6   235     6.2   786.4    0.00 
 214   21:40   0.00   53.6    59    4.1   253     6.2   786.4    0.00 
 214   21:50   0.00   53.6    58    3.4   218     5.0   786.3    0.00 
 214   22:00   0.00   54.2    57    4.2   252     5.6   786.2    0.00 
 214   22:10   0.00   54.4    57    3.7   270     6.1   786.3    0.00 
 214   22:20   0.00   53.9    58    2.4   251     5.4   786.4    0.00 
 214   22:30   0.00   52.7    60    1.8   164     5.3   786.4    0.00 
 214   22:40   0.00   51.8    61    2.4   234     4.2   786.3    0.00 
 214   22:50   0.00   51.1    61    1.4   244     3.5   786.3    0.00 
 214   23:00   0.00   51.6    59    4.4   242     6.4   786.3    0.00 
 214   23:10   0.00   51.2    59    4.3   222     5.8   786.2    0.00 
 214   23:20   0.00   52.2    57    4.2   235     5.5   786.2    0.00 
 214   23:30   0.00   52.6    56    5.0   241     7.1   786.3    0.00 
 214   23:40   0.00   54.2    53    4.9   239     7.2   786.3    0.00 
 214   23:50   0.00   54.3    52    5.0   230     7.2   786.2    0.00 
 215    0:00   0.00   54.6    54    6.6   251     8.8   786.2    0.00 
 215    0:10   0.00   54.8    54    5.9   232    10.5   786.2    0.00 
 215    0:20   0.00   54.9    54    7.7   239    10.9   786.2    0.00 
 215    0:30   0.00   55.9    51    5.2   256     7.8   786.2    0.00 
 215    0:40   0.00   56.4    51    3.0   265     5.6   786.2    0.00 
 215    0:50   0.00   54.9    54    3.5   334     5.3   786.2    0.00 
 215    1:00   0.00   53.2    58    2.4   324     5.1   786.2    0.00 
 215    1:10   0.00   52.0    60    1.7   259     4.1   786.2    0.00 
 215    1:20   0.00   49.8    66    1.3   302     3.7   786.2    0.00 
 215    1:30   0.00   48.6    69    1.0   345     4.5   786.2    0.00 
 215    1:40   0.00   48.0    69    0.7   228     2.4   786.3    0.00 
 215    1:50   0.00   51.0    62    3.7   245     6.1   786.3    0.00 
 215    2:00   0.00   52.2    61    4.3   262     7.5   786.3    0.00 
 215    2:10   0.00   50.9    63    1.4   304     3.6   786.3    0.00 
 215    2:20   0.00   49.4    66    1.3   295     4.7   786.3    0.00 
 215    2:30   0.00   49.2    66    1.2   232     4.4   786.4    0.00 
 215    2:40   0.00   48.4    67    1.1   146     2.6   786.5    0.00 
 215    2:50   0.00   47.9    68    0.3   230     2.1   786.4    0.00 
 215    3:00   0.00   47.4    70    0.3   149     1.5   786.5    0.00 
 215    3:10   0.00   46.3    72    1.2   114     2.8   786.5    0.00 
 215    3:20   0.00   46.4    70    2.1   241     3.3   786.5    0.00 
 215    3:30   0.00   45.9    72    0.6   198     2.0   786.5    0.00 
 215    3:40   0.00   46.2    73    1.7   306     3.9   786.5    0.00 
 215    3:50   0.00   45.5    75    2.0   274     3.4   786.5    0.00 
 215    4:00   0.00   44.6    76    2.1   234     2.6   786.5    0.00 
 215    4:10   0.00   44.1    76    1.0   228     1.9   786.5    0.00 
 215    4:20   0.00   43.7    79    1.6   264     3.0   786.6    0.00 
 215    4:30   0.00   44.2    82    1.4   282     2.4   786.6    0.00 
 215    4:40   0.00   43.9    82    1.3   322     2.8   786.6    0.00 
 215    4:50   0.00   42.6    80    1.0   318     2.0   786.6    0.00 
 215    5:00   0.00   42.0    83    1.4   282     2.1   786.7    0.00 
 215    5:10   0.00   41.6    84    1.8   261     2.5   786.7    0.00 
 215    5:20   0.01   41.5    85    0.6   277     2.3   786.8    0.00 
 215    5:30   0.01   41.6    84    1.9   266     2.5   786.9    0.00 
 215    5:40   0.03   42.2    83    0.9   242     2.0   786.9    0.00 
 215    5:50   0.07   44.3    80    1.5   311     2.7   787.0    0.00 
 215    6:00   0.10   47.8    73    1.2   297     2.1   786.9    0.00 
 215    6:10   0.14   51.2    65    0.8   329     2.2   787.0    0.00 
 215    6:20   0.17   52.7    63    2.8   338     3.4   787.0    0.00 
 215    6:30   0.20   55.5    57    0.4   302     2.6   787.0    0.00 
 215    6:40   0.23   59.1    51    0.3    82     1.6   787.0    0.00 
 215    6:50   0.27   60.4    52    0.7    44     2.1   786.9    0.00 
 215    7:00   0.30   60.8    49    1.3    68     2.2   786.8    0.00 
 215    7:10   0.34   62.2    46    1.5    46     3.3   786.8    0.00 
 215    7:20   0.38   63.2    48    2.2    70     4.7   786.8    0.00 
 215    7:30   0.41   63.2    47    2.0    46     3.6   786.8    0.00 
 215    7:40   0.45   63.7    48    2.4    53     3.9   786.8    0.00 
 215    7:50   0.48   64.9    47    2.7    53     4.7   786.9    0.00 
 215    8:00   0.52   65.4    47    2.6    58     5.8   786.9    0.00 
 215    8:10   0.55   65.9    46    2.6    59     6.4   787.0    0.00 
 215    8:20   0.58   67.3    44    2.7    55     6.6   787.0    0.00 
 215    8:30   0.61   68.3    41    2.9    64     5.4   787.0    0.00 
 215    8:40   0.60   69.5    38    2.3    65     4.1   787.1    0.00 
 215    8:50   0.67   71.8    33    1.0    24     3.1   787.1    0.00 
 215    9:00   0.70   73.1    32    1.8    64     5.1   787.0    0.00 
 215    9:10   0.73   72.9    32    1.5    10     3.8   787.0    0.00 
 215    9:20   0.75   74.0    32    2.5    76     5.6   787.0    0.00 
 215    9:30   0.78   74.1    31    1.3    97     4.3   787.0    0.00 
 215    9:40   0.81   74.4    30    2.1    30     9.0   787.0    0.00 
 215    9:50   0.84   74.7    29    4.1    76     8.6   787.0    0.00 
 215   10:00   0.71   74.4    30    5.5    69    11.1   787.0    0.00 
 215   10:10   0.80   74.2    30    5.4    75    10.7   787.0    0.00 
 215   10:20   0.83   75.0    29    4.4   104     9.6   786.9    0.00 
 215   10:30   0.90   76.2    28    5.7    97    12.9   786.9    0.00 
 215   10:40   0.90   76.7    28    4.7    51     9.9   786.8    0.00 
 215   10:50   0.91   76.5    26    6.7    82    15.0   786.7    0.00 
 215   11:00   0.87   76.6    26    5.6    62    11.5   786.6    0.00 
 215   11:10   0.88   77.2    24    5.9   108    12.7   786.5    0.00 
 215   11:20   0.93   77.9    24    5.9    74    11.6   786.4    0.00 
 215   11:30   0.95   78.6    24    5.1   121    10.1   786.3    0.00 
 215   11:40   0.96   79.6    23    4.7    79     9.7   786.3    0.00 
 215   11:50   0.97   78.6    22    8.1   102    20.2   786.2    0.00 
 215   12:00   0.97   78.2    21    6.0    90    15.3   786.1    0.00 
 215   12:10   0.97   79.0    21    5.6   156    11.0   786.1    0.00 
 215   12:20   0.99   79.9    20    3.4    34     6.4   786.1    0.00 
 215   12:30   1.01   79.8    20    5.6   104    13.7   786.0    0.00 
 215   12:40   1.00   81.6    18    4.3   144    10.1   786.0    0.00 
 215   12:50   0.93   80.9    15    8.8   204    16.7   785.9    0.00 
 215   13:00   0.95   80.5    17    3.8    86     9.4   785.7    0.00 
 215   13:10   0.95   81.3    18    4.6    49    10.1   785.7    0.00 
 215   13:20   0.97   80.6    16    6.3   208    14.9   785.7    0.00 
 215   13:30   0.95   81.1    17   15.2   241    22.9   785.6    0.00 
 215   13:40   0.96   81.6    17   10.6   214    18.6   785.7    0.00 
 215   13:50   0.93   82.1    18   13.0   233    24.3   785.8    0.00 
 215   14:00   0.81   80.5    19   11.2   223    18.6   785.7    0.00 
 215   14:10   0.84   80.6    19   13.8   233    21.9   785.6    0.00 
 215   14:20   0.84   80.8    19   11.4   237    22.7   785.6    0.00 
 215   14:30   0.82   81.4    18   13.6   238    22.0   785.6    0.00 
 215   14:40   0.69   80.8    17   15.3   225    23.5   785.5    0.00 
 215   14:50   0.75   79.9    18   12.6   240    20.1   785.6    0.00 

Return to SNARL Reserve graphs page.


Western Regional Climate Center,wrcc@dri.edu